sensor_id;sensor_type;location;lat;lon;timestamp;pressure;altitude;pressure_sealevel;temperature;humidity
48718;BME280;34521;33.042;-96.586;2023-10-08T00:01:54;100440.17;;;23.35;27.63
48718;BME280;34521;33.042;-96.586;2023-10-08T00:04:19;100443.40;;;23.45;27.05
48718;BME280;34521;33.042;-96.586;2023-10-08T00:06:44;100447.41;;;23.97;26.74
48718;BME280;34521;33.042;-96.586;2023-10-08T00:09:09;100447.11;;;24.74;25.90
48718;BME280;34521;33.042;-96.586;2023-10-08T00:11:35;100445.13;;;24.26;26.21
48718;BME280;34521;33.042;-96.586;2023-10-08T00:14:00;100442.73;;;24.97;25.79
48718;BME280;34521;33.042;-96.586;2023-10-08T00:16:24;100442.64;;;25.36;25.16
48718;BME280;34521;33.042;-96.586;2023-10-08T00:18:49;100447.45;;;24.78;25.68
48718;BME280;34521;33.042;-96.586;2023-10-08T00:21:15;100451.04;;;24.22;26.33
48718;BME280;34521;33.042;-96.586;2023-10-08T00:23:40;100450.88;;;24.40;25.91
48718;BME280;34521;33.042;-96.586;2023-10-08T00:26:05;100452.18;;;25.01;25.31
48718;BME280;34521;33.042;-96.586;2023-10-08T00:28:30;100454.52;;;24.70;25.65
48718;BME280;34521;33.042;-96.586;2023-10-08T00:30:55;100457.45;;;25.18;25.33
48718;BME280;34521;33.042;-96.586;2023-10-08T00:33:20;100459.42;;;24.35;25.93
48718;BME280;34521;33.042;-96.586;2023-10-08T00:35:45;100460.85;;;25.16;25.72
48718;BME280;34521;33.042;-96.586;2023-10-08T00:38:10;100460.08;;;25.43;25.17
48718;BME280;34521;33.042;-96.586;2023-10-08T00:40:38;100458.72;;;25.23;25.12
48718;BME280;34521;33.042;-96.586;2023-10-08T00:43:00;100460.41;;;23.44;27.19
48718;BME280;34521;33.042;-96.586;2023-10-08T00:45:25;100462.97;;;22.60;28.28
48718;BME280;34521;33.042;-96.586;2023-10-08T00:47:50;100461.83;;;22.39;28.46
48718;BME280;34521;33.042;-96.586;2023-10-08T00:50:15;100462.56;;;22.36;28.74
48718;BME280;34521;33.042;-96.586;2023-10-08T00:52:41;100463.41;;;22.11;28.45
48718;BME280;34521;33.042;-96.586;2023-10-08T00:55:06;100462.06;;;24.33;26.35
48718;BME280;34521;33.042;-96.586;2023-10-08T00:57:30;100462.34;;;25.27;25.39
48718;BME280;34521;33.042;-96.586;2023-10-08T00:59:55;100465.47;;;25.31;24.99
48718;BME280;34521;33.042;-96.586;2023-10-08T01:02:20;100464.92;;;25.74;24.85
48718;BME280;34521;33.042;-96.586;2023-10-08T01:04:45;100471.38;;;25.33;24.99
48718;BME280;34521;33.042;-96.586;2023-10-08T01:07:12;100477.41;;;24.69;25.57
48718;BME280;34521;33.042;-96.586;2023-10-08T01:09:36;100477.44;;;25.40;24.97
48718;BME280;34521;33.042;-96.586;2023-10-08T01:12:07;100478.54;;;25.23;25.17
48718;BME280;34521;33.042;-96.586;2023-10-08T01:14:26;100481.69;;;24.60;25.72
48718;BME280;34521;33.042;-96.586;2023-10-08T01:16:50;100481.57;;;24.71;25.43
48718;BME280;34521;33.042;-96.586;2023-10-08T01:19:19;100479.74;;;25.22;25.20
48718;BME280;34521;33.042;-96.586;2023-10-08T01:21:41;100478.22;;;25.03;25.10
48718;BME280;34521;33.042;-96.586;2023-10-08T01:24:06;100470.67;;;25.74;24.66
48718;BME280;34521;33.042;-96.586;2023-10-08T01:26:31;100476.65;;;24.72;25.41
48718;BME280;34521;33.042;-96.586;2023-10-08T01:28:56;100476.67;;;25.33;25.31
48718;BME280;34521;33.042;-96.586;2023-10-08T01:31:21;100479.31;;;24.99;25.16
48718;BME280;34521;33.042;-96.586;2023-10-08T01:33:46;100483.72;;;25.10;25.11
48718;BME280;34521;33.042;-96.586;2023-10-08T01:36:11;100485.36;;;25.10;25.28
48718;BME280;34521;33.042;-96.586;2023-10-08T01:38:36;100490.19;;;25.06;25.15
48718;BME280;34521;33.042;-96.586;2023-10-08T01:41:01;100489.94;;;23.32;27.06
48718;BME280;34521;33.042;-96.586;2023-10-08T01:43:26;100495.46;;;22.30;28.17
48718;BME280;34521;33.042;-96.586;2023-10-08T01:45:51;100499.59;;;22.15;29.03
48718;BME280;34521;33.042;-96.586;2023-10-08T01:48:16;100497.08;;;22.29;28.61
48718;BME280;34521;33.042;-96.586;2023-10-08T01:50:41;100493.37;;;22.82;28.01
48718;BME280;34521;33.042;-96.586;2023-10-08T01:53:06;100495.80;;;23.18;27.75
48718;BME280;34521;33.042;-96.586;2023-10-08T01:55:32;100490.36;;;24.33;26.01
48718;BME280;34521;33.042;-96.586;2023-10-08T01:57:56;100491.56;;;25.18;25.20
48718;BME280;34521;33.042;-96.586;2023-10-08T02:00:21;100491.40;;;25.19;25.11
48718;BME280;34521;33.042;-96.586;2023-10-08T02:02:47;100493.04;;;24.87;25.22
48718;BME280;34521;33.042;-96.586;2023-10-08T02:05:11;100494.16;;;25.01;25.32
48718;BME280;34521;33.042;-96.586;2023-10-08T02:07:36;100496.37;;;24.75;25.29
48718;BME280;34521;33.042;-96.586;2023-10-08T02:10:01;100496.54;;;24.85;25.19
48718;BME280;34521;33.042;-96.586;2023-10-08T02:12:26;100494.74;;;24.60;25.46
48718;BME280;34521;33.042;-96.586;2023-10-08T02:14:51;100496.06;;;24.62;25.37
48718;BME280;34521;33.042;-96.586;2023-10-08T02:17:17;100494.19;;;24.68;25.64
48718;BME280;34521;33.042;-96.586;2023-10-08T02:19:42;100491.47;;;24.55;25.49
48718;BME280;34521;33.042;-96.586;2023-10-08T02:22:07;100484.07;;;24.66;25.41
48718;BME280;34521;33.042;-96.586;2023-10-08T02:24:32;100479.36;;;24.98;25.07
48718;BME280;34521;33.042;-96.586;2023-10-08T02:26:57;100476.44;;;24.85;25.20
48718;BME280;34521;33.042;-96.586;2023-10-08T02:29:24;100477.84;;;23.89;25.87
48718;BME280;34521;33.042;-96.586;2023-10-08T02:31:47;100477.88;;;24.28;25.74
48718;BME280;34521;33.042;-96.586;2023-10-08T02:34:12;100479.14;;;23.78;25.97
48718;BME280;34521;33.042;-96.586;2023-10-08T02:36:37;100481.14;;;24.64;25.45
48718;BME280;34521;33.042;-96.586;2023-10-08T02:39:02;100483.28;;;24.71;25.29
48718;BME280;34521;33.042;-96.586;2023-10-08T02:41:27;100477.41;;;21.89;28.46
48718;BME280;34521;33.042;-96.586;2023-10-08T02:43:52;100470.24;;;20.87;29.80
48718;BME280;34521;33.042;-96.586;2023-10-08T02:46:17;100467.43;;;20.58;30.38
48718;BME280;34521;33.042;-96.586;2023-10-08T02:48:42;100461.95;;;20.25;30.70
48718;BME280;34521;33.042;-96.586;2023-10-08T02:51:07;100455.68;;;20.46;30.44
48718;BME280;34521;33.042;-96.586;2023-10-08T02:53:32;100449.12;;;23.92;26.89
48718;BME280;34521;33.042;-96.586;2023-10-08T02:55:57;100452.97;;;24.15;25.94
48718;BME280;34521;33.042;-96.586;2023-10-08T02:58:22;100456.81;;;24.05;25.81
48718;BME280;34521;33.042;-96.586;2023-10-08T03:00:48;100455.71;;;24.02;25.79
48718;BME280;34521;33.042;-96.586;2023-10-08T03:03:13;100448.85;;;23.95;25.70
48718;BME280;34521;33.042;-96.586;2023-10-08T03:05:37;100447.73;;;24.10;25.75
48718;BME280;34521;33.042;-96.586;2023-10-08T03:08:03;100449.09;;;23.87;26.03
48718;BME280;34521;33.042;-96.586;2023-10-08T03:10:28;100449.43;;;23.93;25.92
48718;BME280;34521;33.042;-96.586;2023-10-08T03:12:53;100456.00;;;24.40;25.46
48718;BME280;34521;33.042;-96.586;2023-10-08T03:15:18;100455.68;;;24.02;25.80
48718;BME280;34521;33.042;-96.586;2023-10-08T03:17:43;100457.25;;;23.85;25.89
48718;BME280;34521;33.042;-96.586;2023-10-08T03:20:08;100459.91;;;24.01;25.52
48718;BME280;34521;33.042;-96.586;2023-10-08T03:22:33;100460.07;;;23.94;25.63
48718;BME280;34521;33.042;-96.586;2023-10-08T03:24:58;100461.50;;;24.17;25.61
48718;BME280;34521;33.042;-96.586;2023-10-08T03:27:23;100464.37;;;24.58;25.21
48718;BME280;34521;33.042;-96.586;2023-10-08T03:29:48;100463.25;;;23.42;26.06
48718;BME280;34521;33.042;-96.586;2023-10-08T03:32:14;100460.90;;;23.38;26.39
48718;BME280;34521;33.042;-96.586;2023-10-08T03:34:38;100459.69;;;23.11;26.39
48718;BME280;34521;33.042;-96.586;2023-10-08T03:37:03;100461.37;;;23.72;26.10
48718;BME280;34521;33.042;-96.586;2023-10-08T03:39:28;100470.00;;;21.69;28.36
48718;BME280;34521;33.042;-96.586;2023-10-08T03:41:53;100472.96;;;20.64;29.86
48718;BME280;34521;33.042;-96.586;2023-10-08T03:44:18;100477.15;;;20.47;30.26
48718;BME280;34521;33.042;-96.586;2023-10-08T03:46:44;100475.17;;;20.40;30.27
48718;BME280;34521;33.042;-96.586;2023-10-08T03:49:09;100473.84;;;20.37;30.21
48718;BME280;34521;33.042;-96.586;2023-10-08T03:51:33;100466.29;;;22.41;28.16
48718;BME280;34521;33.042;-96.586;2023-10-08T03:53:58;100465.51;;;24.27;25.69
48718;BME280;34521;33.042;-96.586;2023-10-08T03:56:24;100460.93;;;24.07;25.61
48718;BME280;34521;33.042;-96.586;2023-10-08T03:58:48;100462.06;;;23.94;25.47
48718;BME280;34521;33.042;-96.586;2023-10-08T04:01:13;100460.59;;;24.48;24.99
48718;BME280;34521;33.042;-96.586;2023-10-08T04:03:39;100461.88;;;24.18;24.96
48718;BME280;34521;33.042;-96.586;2023-10-08T04:06:05;100465.12;;;24.70;24.64
48718;BME280;34521;33.042;-96.586;2023-10-08T04:08:29;100463.03;;;24.56;24.77
48718;BME280;34521;33.042;-96.586;2023-10-08T04:10:54;100464.03;;;24.85;24.52
48718;BME280;34521;33.042;-96.586;2023-10-08T04:13:19;100462.11;;;23.99;25.24
48718;BME280;34521;33.042;-96.586;2023-10-08T04:15:44;100458.84;;;24.53;24.76
48718;BME280;34521;33.042;-96.586;2023-10-08T04:18:10;100461.60;;;24.08;25.17
48718;BME280;34521;33.042;-96.586;2023-10-08T04:20:34;100465.47;;;24.45;24.85
48718;BME280;34521;33.042;-96.586;2023-10-08T04:23:00;100465.32;;;23.83;25.51
48718;BME280;34521;33.042;-96.586;2023-10-08T04:25:24;100464.03;;;23.21;25.75
48718;BME280;34521;33.042;-96.586;2023-10-08T04:27:49;100464.25;;;24.08;25.12
48718;BME280;34521;33.042;-96.586;2023-10-08T04:30:14;100460.89;;;24.04;25.20
48718;BME280;34521;33.042;-96.586;2023-10-08T04:32:39;100457.82;;;24.23;24.95
48718;BME280;34521;33.042;-96.586;2023-10-08T04:35:05;100455.85;;;24.15;25.02
48718;BME280;34521;33.042;-96.586;2023-10-08T04:37:30;100455.55;;;22.78;26.07
48718;BME280;34521;33.042;-96.586;2023-10-08T04:39:54;100460.06;;;20.00;29.68
48718;BME280;34521;33.042;-96.586;2023-10-08T04:42:19;100460.54;;;20.88;29.07
48718;BME280;34521;33.042;-96.586;2023-10-08T04:44:45;100459.07;;;20.79;29.21
48718;BME280;34521;33.042;-96.586;2023-10-08T04:47:10;100457.58;;;20.26;29.82
48718;BME280;34521;33.042;-96.586;2023-10-08T04:49:35;100450.98;;;21.16;28.87
48718;BME280;34521;33.042;-96.586;2023-10-08T04:52:01;100443.13;;;23.56;26.41
48718;BME280;34521;33.042;-96.586;2023-10-08T04:54:26;100447.47;;;23.98;25.38
48718;BME280;34521;33.042;-96.586;2023-10-08T04:56:50;100445.51;;;23.98;25.07
48718;BME280;34521;33.042;-96.586;2023-10-08T04:59:15;100443.34;;;23.77;25.09
48718;BME280;34521;33.042;-96.586;2023-10-08T05:01:40;100439.11;;;23.00;26.01
48718;BME280;34521;33.042;-96.586;2023-10-08T05:04:05;100441.19;;;23.62;25.21
48718;BME280;34521;33.042;-96.586;2023-10-08T05:06:31;100444.01;;;24.21;24.65
48718;BME280;34521;33.042;-96.586;2023-10-08T05:08:55;100434.94;;;23.30;25.44
48718;BME280;34521;33.042;-96.586;2023-10-08T05:11:20;100433.94;;;24.36;24.75
48718;BME280;34521;33.042;-96.586;2023-10-08T05:13:45;100433.10;;;24.26;24.60
48718;BME280;34521;33.042;-96.586;2023-10-08T05:16:10;100429.51;;;22.86;25.91
48718;BME280;34521;33.042;-96.586;2023-10-08T05:18:35;100426.33;;;23.00;25.72
48718;BME280;34521;33.042;-96.586;2023-10-08T05:21:00;100429.07;;;23.77;24.97
48718;BME280;34521;33.042;-96.586;2023-10-08T05:23:26;100430.44;;;23.93;25.04
48718;BME280;34521;33.042;-96.586;2023-10-08T05:25:52;100428.97;;;24.44;24.55
48718;BME280;34521;33.042;-96.586;2023-10-08T05:28:16;100428.78;;;24.05;24.68
48718;BME280;34521;33.042;-96.586;2023-10-08T05:30:40;100426.83;;;24.20;24.50
48718;BME280;34521;33.042;-96.586;2023-10-08T05:33:07;100422.10;;;23.76;24.85
48718;BME280;34521;33.042;-96.586;2023-10-08T05:35:31;100418.93;;;24.23;24.93
48718;BME280;34521;33.042;-96.586;2023-10-08T05:37:59;100415.71;;;20.34;28.90
48718;BME280;34521;33.042;-96.586;2023-10-08T05:40:21;100417.42;;;19.95;29.68
48718;BME280;34521;33.042;-96.586;2023-10-08T05:42:46;100409.02;;;20.43;29.07
48718;BME280;34521;33.042;-96.586;2023-10-08T05:45:11;100411.14;;;21.06;28.88
48718;BME280;34521;33.042;-96.586;2023-10-08T05:47:36;100409.67;;;20.20;29.26
48718;BME280;34521;33.042;-96.586;2023-10-08T05:50:02;100410.74;;;22.07;27.29
48718;BME280;34521;33.042;-96.586;2023-10-08T05:52:26;100408.60;;;23.26;25.63
48718;BME280;34521;33.042;-96.586;2023-10-08T05:54:51;100405.42;;;23.41;25.44
48718;BME280;34521;33.042;-96.586;2023-10-08T05:57:16;100400.21;;;23.10;25.20
48718;BME280;34521;33.042;-96.586;2023-10-08T05:59:43;100397.82;;;23.24;25.40
48718;BME280;34521;33.042;-96.586;2023-10-08T06:02:07;100403.49;;;24.09;24.55
48718;BME280;34521;33.042;-96.586;2023-10-08T06:04:31;100406.14;;;24.42;24.47
48718;BME280;34521;33.042;-96.586;2023-10-08T06:06:56;100403.79;;;23.49;25.12
48718;BME280;34521;33.042;-96.586;2023-10-08T06:09:21;100401.54;;;23.44;25.08
48718;BME280;34521;33.042;-96.586;2023-10-08T06:11:47;100400.04;;;24.13;24.23
48718;BME280;34521;33.042;-96.586;2023-10-08T06:14:12;100401.85;;;23.37;25.36
48718;BME280;34521;33.042;-96.586;2023-10-08T06:16:37;100406.57;;;23.86;24.40
48718;BME280;34521;33.042;-96.586;2023-10-08T06:19:01;100404.31;;;23.80;24.68
48718;BME280;34521;33.042;-96.586;2023-10-08T06:21:27;100404.13;;;22.90;25.34
48718;BME280;34521;33.042;-96.586;2023-10-08T06:23:52;100407.37;;;22.93;25.26
48718;BME280;34521;33.042;-96.586;2023-10-08T06:26:17;100410.07;;;23.43;25.04
48718;BME280;34521;33.042;-96.586;2023-10-08T06:28:43;100413.91;;;23.33;24.88
48718;BME280;34521;33.042;-96.586;2023-10-08T06:31:07;100410.22;;;23.08;24.98
48718;BME280;34521;33.042;-96.586;2023-10-08T06:33:32;100409.93;;;23.61;24.82
48718;BME280;34521;33.042;-96.586;2023-10-08T06:35:57;100409.16;;;21.19;27.13
48718;BME280;34521;33.042;-96.586;2023-10-08T06:38:22;100411.26;;;19.92;28.96
48718;BME280;34521;33.042;-96.586;2023-10-08T06:40:47;100405.84;;;20.36;28.57
48718;BME280;34521;33.042;-96.586;2023-10-08T06:43:12;100408.72;;;20.13;29.14
48718;BME280;34521;33.042;-96.586;2023-10-08T06:45:38;100410.16;;;20.22;29.24
48718;BME280;34521;33.042;-96.586;2023-10-08T06:48:02;100406.51;;;21.49;27.45
48718;BME280;34521;33.042;-96.586;2023-10-08T06:50:27;100408.50;;;22.08;26.67
48718;BME280;34521;33.042;-96.586;2023-10-08T06:52:53;100408.37;;;23.70;24.78
48718;BME280;34521;33.042;-96.586;2023-10-08T06:55:18;100406.27;;;23.71;24.63
48718;BME280;34521;33.042;-96.586;2023-10-08T06:57:42;100407.60;;;23.61;24.72
48718;BME280;34521;33.042;-96.586;2023-10-08T07:00:09;100410.52;;;23.95;24.45
48718;BME280;34521;33.042;-96.586;2023-10-08T07:02:33;100407.66;;;23.43;24.85
48718;BME280;34521;33.042;-96.586;2023-10-08T07:04:58;100410.34;;;23.44;24.61
48718;BME280;34521;33.042;-96.586;2023-10-08T07:07:23;100408.68;;;23.83;24.42
48718;BME280;34521;33.042;-96.586;2023-10-08T07:09:48;100410.77;;;24.17;24.20
48718;BME280;34521;33.042;-96.586;2023-10-08T07:12:13;100407.05;;;24.10;24.11
48718;BME280;34521;33.042;-96.586;2023-10-08T07:14:38;100403.61;;;23.29;24.91
48718;BME280;34521;33.042;-96.586;2023-10-08T07:17:03;100405.01;;;24.23;24.00
48718;BME280;34521;33.042;-96.586;2023-10-08T07:19:29;100403.47;;;23.74;24.42
48718;BME280;34521;33.042;-96.586;2023-10-08T07:21:53;100397.90;;;23.26;24.72
48718;BME280;34521;33.042;-96.586;2023-10-08T07:24:18;100398.19;;;24.22;24.06
48718;BME280;34521;33.042;-96.586;2023-10-08T07:26:43;100395.14;;;23.86;23.86
48718;BME280;34521;33.042;-96.586;2023-10-08T07:29:08;100396.43;;;23.64;24.25
48718;BME280;34521;33.042;-96.586;2023-10-08T07:31:33;100393.33;;;23.81;23.90
48718;BME280;34521;33.042;-96.586;2023-10-08T07:33:58;100393.02;;;24.23;23.68
48718;BME280;34521;33.042;-96.586;2023-10-08T07:36:24;100398.84;;;19.35;29.17
48718;BME280;34521;33.042;-96.586;2023-10-08T07:38:48;100394.89;;;19.82;28.72
48718;BME280;34521;33.042;-96.586;2023-10-08T07:41:14;100395.38;;;20.25;28.97
48718;BME280;34521;33.042;-96.586;2023-10-08T07:43:38;100388.16;;;20.97;27.94
48718;BME280;34521;33.042;-96.586;2023-10-08T07:46:04;100383.37;;;20.47;28.45
48718;BME280;34521;33.042;-96.586;2023-10-08T07:48:29;100385.66;;;21.61;26.78
48718;BME280;34521;33.042;-96.586;2023-10-08T07:50:54;100380.97;;;22.97;25.48
48718;BME280;34521;33.042;-96.586;2023-10-08T07:53:19;100383.42;;;23.05;24.85
48718;BME280;34521;33.042;-96.586;2023-10-08T07:55:45;100383.07;;;23.39;24.48
48718;BME280;34521;33.042;-96.586;2023-10-08T07:58:09;100377.97;;;23.16;24.88
48718;BME280;34521;33.042;-96.586;2023-10-08T08:00:35;100373.04;;;23.55;24.25
48718;BME280;34521;33.042;-96.586;2023-10-08T08:02:59;100372.43;;;23.91;24.00
48718;BME280;34521;33.042;-96.586;2023-10-08T08:05:24;100368.00;;;23.54;24.33
48718;BME280;34521;33.042;-96.586;2023-10-08T08:07:49;100367.26;;;23.74;24.05
48718;BME280;34521;33.042;-96.586;2023-10-08T08:10:14;100362.83;;;23.63;24.15
48718;BME280;34521;33.042;-96.586;2023-10-08T08:12:39;100360.18;;;22.69;24.70
48718;BME280;34521;33.042;-96.586;2023-10-08T08:15:05;100354.98;;;23.31;24.17
48718;BME280;34521;33.042;-96.586;2023-10-08T08:17:29;100349.17;;;23.41;24.28
48718;BME280;34521;33.042;-96.586;2023-10-08T08:19:54;100345.82;;;23.59;24.19
48718;BME280;34521;33.042;-96.586;2023-10-08T08:22:21;100345.84;;;23.93;23.82
48718;BME280;34521;33.042;-96.586;2023-10-08T08:24:44;100344.01;;;23.80;23.74
48718;BME280;34521;33.042;-96.586;2023-10-08T08:27:09;100343.01;;;23.71;24.02
48718;BME280;34521;33.042;-96.586;2023-10-08T08:29:35;100340.87;;;23.22;24.35
48718;BME280;34521;33.042;-96.586;2023-10-08T08:32:00;100341.84;;;23.55;24.18
48718;BME280;34521;33.042;-96.586;2023-10-08T08:34:25;100343.72;;;19.42;28.27
48718;BME280;34521;33.042;-96.586;2023-10-08T08:36:50;100341.83;;;19.83;28.75
48718;BME280;34521;33.042;-96.586;2023-10-08T08:39:15;100337.94;;;20.36;28.14
48718;BME280;34521;33.042;-96.586;2023-10-08T08:41:40;100340.64;;;19.97;28.80
48718;BME280;34521;33.042;-96.586;2023-10-08T08:44:06;100339.35;;;19.56;28.91
48718;BME280;34521;33.042;-96.586;2023-10-08T08:46:32;100331.61;;;21.49;26.97
48718;BME280;34521;33.042;-96.586;2023-10-08T08:48:57;100327.37;;;21.45;26.52
48718;BME280;34521;33.042;-96.586;2023-10-08T08:51:20;100326.55;;;22.23;25.53
48718;BME280;34521;33.042;-96.586;2023-10-08T08:53:45;100329.89;;;23.35;24.39
48718;BME280;34521;33.042;-96.586;2023-10-08T08:56:10;100328.31;;;23.11;24.34
48718;BME280;34521;33.042;-96.586;2023-10-08T08:58:36;100322.59;;;23.02;24.46
48718;BME280;34521;33.042;-96.586;2023-10-08T09:01:00;100320.58;;;23.14;24.24
48718;BME280;34521;33.042;-96.586;2023-10-08T09:03:25;100319.43;;;22.70;24.64
48718;BME280;34521;33.042;-96.586;2023-10-08T09:05:51;100320.96;;;23.60;23.80
48718;BME280;34521;33.042;-96.586;2023-10-08T09:08:15;100324.49;;;23.42;23.94
48718;BME280;34521;33.042;-96.586;2023-10-08T09:10:42;100325.81;;;22.82;24.50
48718;BME280;34521;33.042;-96.586;2023-10-08T09:13:07;100325.88;;;22.58;24.65
48718;BME280;34521;33.042;-96.586;2023-10-08T09:15:31;100324.60;;;22.95;24.55
48718;BME280;34521;33.042;-96.586;2023-10-08T09:17:56;100324.08;;;23.00;24.28
48718;BME280;34521;33.042;-96.586;2023-10-08T09:20:21;100324.30;;;23.06;24.18
48718;BME280;34521;33.042;-96.586;2023-10-08T09:22:46;100321.30;;;23.17;24.11
48718;BME280;34521;33.042;-96.586;2023-10-08T09:25:11;100321.92;;;23.04;24.14
48718;BME280;34521;33.042;-96.586;2023-10-08T09:27:36;100324.39;;;23.59;23.69
48718;BME280;34521;33.042;-96.586;2023-10-08T09:30:05;100318.54;;;22.87;24.38
48718;BME280;34521;33.042;-96.586;2023-10-08T09:32:26;100316.93;;;21.45;25.88
48718;BME280;34521;33.042;-96.586;2023-10-08T09:34:52;100322.94;;;18.97;29.19
48718;BME280;34521;33.042;-96.586;2023-10-08T09:37:18;100320.82;;;20.14;27.93
48718;BME280;34521;33.042;-96.586;2023-10-08T09:39:42;100319.13;;;19.84;28.18
48718;BME280;34521;33.042;-96.586;2023-10-08T09:42:06;100317.02;;;20.38;27.77
48718;BME280;34521;33.042;-96.586;2023-10-08T09:44:31;100316.26;;;21.29;26.96
48718;BME280;34521;33.042;-96.586;2023-10-08T09:47:02;100316.42;;;20.43;27.38
48718;BME280;34521;33.042;-96.586;2023-10-08T09:49:29;100320.89;;;21.12;26.29
48718;BME280;34521;33.042;-96.586;2023-10-08T09:51:47;100318.88;;;22.28;25.02
48718;BME280;34521;33.042;-96.586;2023-10-08T09:54:15;100322.66;;;21.88;25.41
48718;BME280;34521;33.042;-96.586;2023-10-08T09:56:37;100322.06;;;22.87;24.36
48718;BME280;34521;33.042;-96.586;2023-10-08T09:59:02;100320.78;;;22.53;24.48
48718;BME280;34521;33.042;-96.586;2023-10-08T10:01:27;100315.45;;;22.99;24.48
48718;BME280;34521;33.042;-96.586;2023-10-08T10:03:52;100317.72;;;21.97;25.10
48718;BME280;34521;33.042;-96.586;2023-10-08T10:06:18;100315.02;;;22.40;24.51
48718;BME280;34521;33.042;-96.586;2023-10-08T10:08:43;100319.41;;;21.53;25.63
48718;BME280;34521;33.042;-96.586;2023-10-08T10:11:07;100319.28;;;20.89;25.79
48718;BME280;34521;33.042;-96.586;2023-10-08T10:13:38;100317.49;;;21.98;25.15
48718;BME280;34521;33.042;-96.586;2023-10-08T10:15:58;100318.14;;;22.16;25.06
48718;BME280;34521;33.042;-96.586;2023-10-08T10:18:28;100319.15;;;22.48;24.62
48718;BME280;34521;33.042;-96.586;2023-10-08T10:20:52;100322.86;;;22.57;24.50
48718;BME280;34521;33.042;-96.586;2023-10-08T10:25:41;100320.96;;;21.42;25.41
48718;BME280;34521;33.042;-96.586;2023-10-08T10:30:27;100313.37;;;22.44;24.33
48718;BME280;34521;33.042;-96.586;2023-10-08T10:32:53;100319.45;;;18.59;28.85
48718;BME280;34521;33.042;-96.586;2023-10-08T10:35:17;100316.76;;;19.80;27.88
48718;BME280;34521;33.042;-96.586;2023-10-08T10:37:42;100318.91;;;20.12;27.76
48718;BME280;34521;33.042;-96.586;2023-10-08T10:40:08;100321.10;;;20.35;27.45
48718;BME280;34521;33.042;-96.586;2023-10-08T10:42:34;100321.07;;;20.11;27.69
48718;BME280;34521;33.042;-96.586;2023-10-08T10:44:58;100321.90;;;21.14;26.43
48718;BME280;34521;33.042;-96.586;2023-10-08T10:47:23;100320.09;;;21.69;25.93
48718;BME280;34521;33.042;-96.586;2023-10-08T10:49:49;100319.91;;;21.76;25.32
48718;BME280;34521;33.042;-96.586;2023-10-08T10:52:13;100319.18;;;21.46;25.61
48718;BME280;34521;33.042;-96.586;2023-10-08T10:54:38;100323.64;;;22.32;24.73
48718;BME280;34521;33.042;-96.586;2023-10-08T10:57:03;100327.04;;;21.10;25.49
48718;BME280;34521;33.042;-96.586;2023-10-08T10:59:28;100319.65;;;22.20;24.61
48718;BME280;34521;33.042;-96.586;2023-10-08T11:01:53;100319.17;;;22.32;24.50
48718;BME280;34521;33.042;-96.586;2023-10-08T11:04:18;100318.38;;;21.61;24.98
48718;BME280;34521;33.042;-96.586;2023-10-08T11:06:44;100312.33;;;22.15;24.67
48718;BME280;34521;33.042;-96.586;2023-10-08T11:09:08;100311.44;;;22.68;24.34
48718;BME280;34521;33.042;-96.586;2023-10-08T11:11:33;100315.66;;;20.39;26.26
48718;BME280;34521;33.042;-96.586;2023-10-08T11:14:00;100312.34;;;22.25;24.66
48718;BME280;34521;33.042;-96.586;2023-10-08T11:16:24;100312.37;;;21.65;24.90
48718;BME280;34521;33.042;-96.586;2023-10-08T11:18:48;100313.25;;;22.75;23.96
48718;BME280;34521;33.042;-96.586;2023-10-08T11:21:13;100314.89;;;20.91;25.29
48718;BME280;34521;33.042;-96.586;2023-10-08T11:23:42;100312.13;;;21.59;24.96
48718;BME280;34521;33.042;-96.586;2023-10-08T11:26:05;100312.31;;;22.04;24.31
48718;BME280;34521;33.042;-96.586;2023-10-08T11:28:28;100316.39;;;22.24;24.37
48718;BME280;34521;33.042;-96.586;2023-10-08T11:30:53;100333.26;;;18.40;28.29
48718;BME280;34521;33.042;-96.586;2023-10-08T11:33:18;100330.62;;;19.86;27.39
48718;BME280;34521;33.042;-96.586;2023-10-08T11:35:55;100336.08;;;19.32;27.85
48718;BME280;34521;33.042;-96.586;2023-10-08T11:38:08;100333.02;;;19.91;27.43
48718;BME280;34521;33.042;-96.586;2023-10-08T11:40:33;100332.50;;;19.80;27.54
48718;BME280;34521;33.042;-96.586;2023-10-08T11:42:59;100334.13;;;20.85;26.46
48718;BME280;34521;33.042;-96.586;2023-10-08T11:45:24;100339.59;;;20.10;27.17
48718;BME280;34521;33.042;-96.586;2023-10-08T11:47:49;100339.65;;;21.62;25.37
48718;BME280;34521;33.042;-96.586;2023-10-08T11:50:14;100341.78;;;19.84;26.78
48718;BME280;34521;33.042;-96.586;2023-10-08T11:52:39;100339.99;;;21.16;25.67
48718;BME280;34521;33.042;-96.586;2023-10-08T11:55:04;100337.58;;;19.97;26.59
48718;BME280;34521;33.042;-96.586;2023-10-08T11:57:29;100337.87;;;20.78;25.94
48718;BME280;34521;33.042;-96.586;2023-10-08T11:59:54;100339.26;;;21.75;24.87
48718;BME280;34521;33.042;-96.586;2023-10-08T12:02:19;100343.07;;;21.47;25.20
48718;BME280;34521;33.042;-96.586;2023-10-08T12:04:44;100336.60;;;22.00;24.33
48718;BME280;34521;33.042;-96.586;2023-10-08T12:07:09;100335.99;;;22.20;24.38
48718;BME280;34521;33.042;-96.586;2023-10-08T12:09:34;100337.18;;;20.31;26.07
48718;BME280;34521;33.042;-96.586;2023-10-08T12:11:59;100332.85;;;21.76;24.54
48718;BME280;34521;33.042;-96.586;2023-10-08T12:14:24;100336.83;;;20.57;25.87
48718;BME280;34521;33.042;-96.586;2023-10-08T12:16:49;100333.43;;;21.49;24.84
48718;BME280;34521;33.042;-96.586;2023-10-08T12:19:14;100335.03;;;20.86;25.64
48718;BME280;34521;33.042;-96.586;2023-10-08T12:21:39;100335.30;;;20.74;25.26
48718;BME280;34521;33.042;-96.586;2023-10-08T12:24:05;100336.65;;;20.31;26.10